CheckWX is a tool to help pilots better visualize weather data.  It is not intended as a substitute for an official pre-flight weather briefing.

16:56:32 UTC

MMSL TAF
Cabo San Lucas International Airport
Cabo San Lucas, Mexico
TAF MMSL 180525Z 1806/1906 29010KT P6SM SKC FM181800 20010KT P6SM SKC FM190300 24005KT P6SM SKC

Jun-18@
06:00 UTC

Jun-18 @ 06:00 UTC

Jun-18@
18:00 UTC

Jun-18 @ 18:00 UTC

TAF MMSL 180525Z 1806/1906 29010KT P6SM SKC
Wind
  • 290° at 10 KTS
Cloud Levels
  • Clear skies

Jun-18@
18:00 UTC

Jun-18 @ 18:00 UTC

Jun-19@
03:00 UTC

Jun-19 @ 03:00 UTC

FM181800 20010KT P6SM SKC

From

From Standard forecast or significant change

Wind
  • 200° at 10 KTS
Cloud Levels
  • Clear skies

Jun-19@
03:00 UTC

Jun-19 @ 03:00 UTC

Jun-19@
06:00 UTC

Jun-19 @ 06:00 UTC

FM190300 24005KT P6SM SKC

From

From Standard forecast or significant change

Wind
  • 240° at 5 KTS
Cloud Levels
  • Clear skies